createdAt,value
2018-06-22T00:01:24.547Z,2.07
2018-06-22T00:03:54.145Z,2.40
2018-06-22T00:06:24.300Z,2.07
2018-06-22T00:08:54.920Z,2.73
2018-06-22T00:11:24.968Z,2.97
2018-06-22T00:13:54.612Z,2.20
2018-06-22T00:16:24.941Z,2.20
2018-06-22T00:18:54.436Z,2.70
2018-06-22T00:21:23.784Z,2.43
2018-06-22T00:23:53.100Z,2.30
2018-06-22T00:26:22.476Z,2.40
2018-06-22T00:28:52.487Z,2.50
2018-06-22T00:31:21.741Z,2.53
2018-06-22T00:33:51.034Z,2.40
2018-06-22T00:36:20.753Z,2.43
2018-06-22T00:38:50.927Z,2.30
2018-06-22T00:41:20.736Z,2.30
2018-06-22T00:43:50.182Z,2.40
2018-06-22T00:46:19.673Z,2.07
2018-06-22T00:48:49.319Z,2.20
2018-06-22T00:51:18.847Z,2.40
2018-06-22T00:53:59.198Z,2.53
2018-06-22T00:56:28.725Z,2.40
2018-06-22T00:58:58.116Z,2.20
2018-06-22T01:01:28.473Z,2.40
2018-06-22T01:03:58.282Z,2.43
2018-06-22T01:06:27.701Z,2.40
2018-06-22T01:08:57.077Z,2.40
2018-06-22T01:11:26.963Z,2.30
2018-06-22T01:13:56.520Z,2.77
2018-06-22T01:16:25.792Z,2.83
2018-06-22T01:18:55.006Z,2.50
2018-06-22T01:21:24.655Z,2.63
2018-06-22T01:23:54.669Z,2.73
2018-06-22T01:26:23.974Z,2.30
2018-06-22T01:28:57.605Z,3.00
2018-06-22T01:31:27.051Z,3.27
2018-06-22T01:33:56.545Z,2.40
2018-06-22T01:36:26.245Z,2.90
2018-06-22T01:38:55.691Z,2.67
2018-06-22T01:41:26.914Z,9.03
2018-06-22T01:43:56.121Z,4.43
2018-06-22T01:46:25.485Z,3.20
2018-06-22T01:48:54.789Z,3.17
2018-06-22T01:51:24.694Z,8.87
2018-06-22T01:53:53.958Z,4.30
2018-06-22T01:56:23.141Z,4.17
2018-06-22T01:58:52.447Z,3.97
2018-06-22T02:01:21.755Z,3.87
2018-06-22T02:03:51.864Z,4.40
2018-06-22T02:06:21.541Z,3.90
2018-06-22T02:08:51.144Z,4.00
2018-06-22T02:11:20.736Z,4.33
2018-06-22T02:13:50.335Z,3.90
2018-06-22T02:16:19.884Z,3.93
2018-06-22T02:18:49.862Z,3.63
2018-06-22T02:21:19.381Z,4.60
2018-06-22T02:23:48.960Z,4.47
2018-06-22T02:26:18.229Z,5.00
2018-06-22T02:28:47.321Z,4.17
2018-06-22T02:31:16.994Z,4.00
2018-06-22T02:33:46.815Z,3.80
2018-06-22T02:36:16.325Z,3.90
2018-06-22T02:38:45.670Z,3.67
2018-06-22T02:41:14.971Z,3.97
2018-06-22T02:43:44.375Z,3.60
2018-06-22T02:46:13.388Z,3.30
2018-06-22T02:48:43.047Z,3.90
2018-06-22T02:51:12.592Z,3.27
2018-06-22T02:53:41.811Z,3.57
2018-06-22T02:56:11.265Z,3.23
2018-06-22T02:58:40.111Z,3.60
2018-06-22T03:01:09.405Z,3.77
2018-06-22T03:03:38.925Z,4.30
2018-06-22T03:06:09.335Z,5.77
2018-06-22T03:08:38.876Z,4.87
2018-06-22T03:11:08.531Z,3.67
2018-06-22T03:13:38.262Z,3.03
2018-06-22T03:16:08.938Z,3.20
2018-06-22T03:18:38.572Z,2.93
2018-06-22T03:21:08.094Z,2.60
2018-06-22T03:23:37.840Z,2.93
2018-06-22T03:26:07.512Z,2.50
2018-06-22T03:28:38.108Z,2.87
2018-06-22T03:31:08.317Z,2.93
2018-06-22T03:33:37.910Z,2.63
2018-06-22T03:36:07.266Z,2.30
2018-06-22T03:38:36.690Z,2.50
2018-06-22T03:41:06.241Z,2.80
2018-06-22T03:43:36.073Z,3.10
2018-06-22T03:46:05.052Z,2.60
2018-06-22T03:48:34.538Z,2.90
2018-06-22T03:51:04.553Z,2.80
2018-06-22T03:53:34.487Z,2.47
2018-06-22T03:56:04.568Z,2.80
2018-06-22T03:58:33.956Z,2.80
2018-06-22T04:01:03.408Z,2.90
2018-06-22T04:03:32.805Z,2.70
2018-06-22T04:06:02.209Z,2.03
2018-06-22T04:08:32.391Z,2.43
2018-06-22T04:11:01.741Z,2.40
2018-06-22T04:13:31.262Z,2.57
2018-06-22T04:16:01.332Z,2.80
2018-06-22T04:18:30.832Z,2.20
2018-06-22T04:21:00.533Z,2.40
2018-06-22T04:23:29.993Z,1.93
2018-06-22T04:25:59.506Z,2.50
2018-06-22T04:28:29.158Z,3.10
2018-06-22T04:30:58.455Z,2.77
2018-06-22T04:33:27.949Z,3.10
2018-06-22T04:35:57.202Z,2.70
2018-06-22T04:38:27.116Z,2.30
2018-06-22T04:40:56.807Z,2.47
2018-06-22T04:43:26.305Z,3.20
2018-06-22T04:45:55.503Z,3.07
2018-06-22T04:48:25.140Z,2.53
2018-06-22T04:50:54.845Z,3.00
2018-06-22T04:53:25.017Z,2.87
2018-06-22T04:55:54.692Z,2.73
2018-06-22T04:58:24.216Z,2.67
2018-06-22T05:00:53.533Z,3.07
2018-06-22T05:03:22.653Z,2.67
2018-06-22T05:05:51.930Z,2.30
2018-06-22T05:08:21.533Z,2.57
2018-06-22T05:10:51.005Z,2.33
2018-06-22T05:13:21.103Z,2.40
2018-06-22T05:15:50.642Z,1.90
2018-06-22T05:18:20.136Z,2.20
2018-06-22T05:20:49.934Z,1.57
2018-06-22T05:23:19.471Z,1.77
2018-06-22T05:25:48.707Z,1.73
2018-06-22T05:28:18.252Z,1.70
2018-06-22T05:30:47.544Z,2.03
2018-06-22T05:33:17.022Z,1.90
2018-06-22T05:35:46.284Z,1.67
2018-06-22T05:38:15.469Z,1.80
2018-06-22T05:40:45.172Z,1.40
2018-06-22T05:43:14.388Z,1.50
2018-06-22T05:45:43.687Z,1.63
2018-06-22T05:48:13.236Z,1.40
2018-06-22T05:50:42.875Z,1.30
2018-06-22T05:53:12.329Z,1.23
2018-06-22T05:55:42.276Z,1.07
2018-06-22T05:58:11.672Z,1.00
2018-06-22T06:00:41.210Z,1.03
2018-06-22T06:03:10.560Z,1.20
2018-06-22T06:05:40.200Z,1.10
2018-06-22T06:08:09.880Z,1.00
2018-06-22T06:10:39.502Z,1.40
2018-06-22T06:13:09.087Z,1.10
2018-06-22T06:15:38.305Z,0.87
2018-06-22T06:18:07.941Z,1.30
2018-06-22T06:20:37.825Z,1.23
2018-06-22T06:23:07.371Z,1.23
2018-06-22T06:25:36.762Z,1.70
2018-06-22T06:28:06.220Z,1.27
2018-06-22T06:30:35.698Z,1.10
2018-06-22T06:33:05.196Z,1.00
2018-06-22T06:35:34.631Z,1.10
2018-06-22T06:38:04.230Z,1.30
2018-06-22T06:40:33.800Z,1.20
2018-06-22T06:43:03.292Z,1.10
2018-06-22T06:45:32.657Z,1.13
2018-06-22T06:48:02.202Z,0.83
2018-06-22T06:50:31.812Z,0.97
2018-06-22T06:53:01.317Z,1.07
2018-06-22T06:55:30.569Z,0.90
2018-06-22T06:58:00.250Z,1.40
2018-06-22T07:00:29.637Z,0.80
2018-06-22T07:02:59.001Z,1.07
2018-06-22T07:05:28.437Z,0.97
2018-06-22T07:07:57.724Z,0.90
2018-06-22T07:10:27.181Z,1.00
2018-06-22T07:12:56.595Z,1.10
2018-06-22T07:15:26.049Z,0.63
2018-06-22T07:17:55.367Z,1.00
2018-06-22T07:20:24.577Z,1.10
2018-06-22T07:22:54.245Z,0.80
2018-06-22T07:25:23.680Z,0.60
2018-06-22T07:27:52.949Z,0.80
2018-06-22T07:30:22.353Z,0.80
2018-06-22T07:32:51.785Z,0.90
2018-06-22T07:35:22.059Z,0.90
2018-06-22T07:37:51.289Z,0.80
2018-06-22T07:40:20.829Z,0.97
2018-06-22T07:42:50.868Z,0.90
2018-06-22T07:45:20.332Z,0.60
2018-06-22T07:47:49.827Z,0.80
2018-06-22T07:50:19.394Z,0.83
2018-06-22T07:52:48.226Z,0.60
2018-06-22T07:55:17.559Z,0.80
2018-06-22T07:57:47.065Z,0.80
2018-06-22T08:00:16.207Z,0.80
2018-06-22T08:02:45.420Z,1.00
2018-06-22T08:05:14.622Z,0.90
2018-06-22T08:07:44.018Z,1.10
2018-06-22T08:10:13.169Z,0.93
2018-06-22T08:12:42.444Z,1.00
2018-06-22T08:15:11.646Z,0.87
2018-06-22T08:17:41.089Z,1.20
2018-06-22T08:20:10.512Z,1.00
2018-06-22T08:22:40.084Z,1.30
2018-06-22T08:25:09.688Z,1.40
2018-06-22T08:27:38.927Z,0.80
2018-06-22T08:30:08.732Z,0.87
2018-06-22T08:32:37.926Z,1.00
2018-06-22T08:35:07.628Z,1.03
2018-06-22T08:37:36.899Z,1.00
2018-06-22T08:40:06.076Z,1.10
2018-06-22T08:42:35.485Z,1.10
2018-06-22T08:45:04.769Z,1.00
2018-06-22T08:47:33.894Z,1.00
2018-06-22T08:50:03.440Z,1.00
2018-06-22T08:52:32.500Z,1.10
2018-06-22T08:55:01.649Z,1.03
2018-06-22T08:57:32.101Z,1.00
2018-06-22T09:00:01.270Z,0.93
2018-06-22T09:02:30.653Z,0.90
2018-06-22T09:05:00.071Z,1.17
2018-06-22T09:07:29.524Z,1.33
2018-06-22T09:09:58.866Z,0.90
2018-06-22T09:12:28.646Z,1.27
2018-06-22T09:14:58.069Z,1.10
2018-06-22T09:17:27.627Z,1.63
2018-06-22T09:19:56.886Z,1.40
2018-06-22T09:22:26.700Z,1.20
2018-06-22T09:24:56.744Z,1.37
2018-06-22T09:27:26.265Z,1.20
2018-06-22T09:29:55.763Z,1.23
2018-06-22T09:32:24.986Z,1.10
2018-06-22T09:34:54.445Z,1.30
2018-06-22T09:37:23.693Z,1.97
2018-06-22T09:39:53.056Z,1.30
2018-06-22T09:42:22.332Z,1.40
2018-06-22T09:44:51.458Z,2.20
2018-06-22T09:47:21.102Z,1.63
2018-06-22T09:49:50.464Z,1.60
2018-06-22T09:52:19.773Z,1.80
2018-06-22T09:54:48.875Z,2.00
2018-06-22T09:57:18.336Z,3.00
2018-06-22T09:59:47.878Z,2.70
2018-06-22T10:02:17.552Z,2.53
2018-06-22T10:04:46.766Z,2.00
2018-06-22T10:07:16.229Z,2.23
2018-06-22T10:09:45.561Z,2.40
2018-06-22T10:12:15.181Z,2.50
2018-06-22T10:14:44.428Z,2.23
2018-06-22T10:17:13.880Z,2.17
2018-06-22T10:19:43.169Z,2.50
2018-06-22T10:22:12.742Z,3.10
2018-06-22T10:24:42.269Z,2.60
2018-06-22T10:27:11.522Z,2.30
2018-06-22T10:29:40.951Z,2.67
2018-06-22T10:32:10.305Z,2.60
2018-06-22T10:34:39.142Z,2.43
2018-06-22T10:37:08.786Z,2.40
2018-06-22T10:39:38.069Z,2.43
2018-06-22T10:42:07.150Z,2.30
2018-06-22T10:44:36.436Z,2.10
2018-06-22T10:47:05.733Z,1.90
2018-06-22T10:49:35.145Z,1.70
2018-06-22T10:52:04.591Z,1.70
2018-06-22T10:54:33.852Z,1.20
2018-06-22T10:57:03.140Z,1.40
2018-06-22T10:59:32.431Z,1.30
2018-06-22T11:02:01.581Z,1.10
2018-06-22T11:04:31.297Z,1.10
2018-06-22T11:07:00.785Z,1.00
2018-06-22T11:09:30.301Z,1.07
2018-06-22T11:14:34.889Z,1.23
2018-06-22T11:17:04.305Z,1.00
2018-06-22T11:19:34.365Z,1.00
2018-06-22T11:22:03.334Z,1.03
2018-06-22T11:24:32.699Z,1.10
2018-06-22T11:27:01.884Z,0.90
2018-06-22T11:29:31.221Z,1.20
2018-06-22T11:32:00.779Z,1.17
2018-06-22T11:34:30.450Z,1.23
2018-06-22T11:36:59.742Z,1.00
2018-06-22T11:39:28.962Z,0.90
2018-06-22T11:41:58.259Z,1.00
2018-06-22T11:44:27.669Z,1.00
2018-06-22T11:46:57.255Z,1.10
2018-06-22T11:49:26.805Z,1.23
2018-06-22T11:51:56.357Z,1.00
2018-06-22T11:54:26.105Z,1.00
2018-06-22T11:56:55.365Z,1.10
2018-06-22T11:59:24.762Z,0.90
2018-06-22T12:01:53.999Z,3.87
2018-06-22T12:04:23.619Z,1.30
2018-06-22T12:06:52.862Z,1.10
2018-06-22T12:09:22.453Z,1.37
2018-06-22T12:11:51.786Z,1.20
2018-06-22T12:14:21.028Z,0.90
2018-06-22T12:16:50.316Z,0.80
2018-06-22T12:19:19.762Z,1.30
2018-06-22T12:21:49.113Z,1.13
2018-06-22T12:24:18.836Z,1.30
2018-06-22T12:26:48.126Z,0.90
2018-06-22T12:29:17.443Z,1.10
2018-06-22T12:31:46.844Z,1.40
2018-06-22T12:34:16.646Z,1.40
2018-06-22T12:36:45.995Z,1.30
2018-06-22T12:39:15.749Z,1.20
2018-06-22T12:41:45.451Z,1.00
2018-06-22T12:44:14.753Z,1.27
2018-06-22T12:46:44.073Z,1.20
2018-06-22T12:49:13.304Z,1.10
2018-06-22T12:51:42.831Z,1.40
2018-06-22T12:54:12.244Z,1.10
2018-06-22T12:56:41.822Z,1.03
2018-06-22T12:59:11.219Z,1.27
2018-06-22T13:01:40.652Z,1.00
2018-06-22T13:04:09.714Z,0.90
2018-06-22T13:06:39.222Z,1.17
2018-06-22T13:09:10.571Z,1.23
2018-06-22T13:11:40.098Z,1.63
2018-06-22T13:14:10.244Z,1.20
2018-06-22T13:16:39.281Z,1.50
2018-06-22T13:19:08.532Z,1.10
2018-06-22T13:21:47.181Z,1.20
2018-06-22T13:24:17.637Z,0.93
2018-06-22T13:26:47.183Z,1.00
2018-06-22T13:29:16.613Z,1.27
2018-06-22T13:31:45.908Z,1.10
2018-06-22T13:34:16.531Z,1.00
2018-06-22T13:36:46.941Z,1.20
2018-06-22T13:39:17.770Z,0.97
2018-06-22T13:41:47.642Z,1.10
2018-06-22T13:44:16.768Z,1.20
2018-06-22T13:46:46.175Z,1.70
2018-06-22T13:49:15.478Z,1.37
2018-06-22T13:51:44.650Z,1.97
2018-06-22T13:54:14.123Z,1.13
2018-06-22T13:56:43.420Z,1.10
2018-06-22T13:59:13.130Z,1.30
2018-06-22T14:01:42.341Z,1.27
2018-06-22T14:04:18.047Z,1.00
2018-06-22T14:06:53.603Z,0.90
2018-06-22T14:09:23.055Z,1.00
2018-06-22T14:11:52.272Z,0.90
2018-06-22T14:14:21.766Z,1.10
2018-06-22T14:16:51.296Z,1.10
2018-06-22T14:19:20.628Z,1.20
2018-06-22T14:21:49.854Z,1.03
2018-06-22T14:24:19.259Z,1.30
2018-06-22T14:26:48.497Z,1.10
2018-06-22T14:29:17.809Z,1.20
2018-06-22T14:31:47.819Z,1.13
2018-06-22T14:34:17.220Z,1.10
2018-06-22T14:36:46.852Z,0.87
2018-06-22T14:39:17.531Z,1.10
2018-06-22T14:41:46.604Z,1.53
2018-06-22T14:44:16.097Z,1.40
2018-06-22T14:46:45.575Z,1.70
2018-06-22T14:49:15.256Z,1.73
2018-06-22T14:51:44.409Z,1.93
2018-06-22T14:54:19.319Z,1.70
2018-06-22T14:56:54.339Z,1.90
2018-06-22T14:59:29.037Z,2.10
2018-06-22T15:02:03.451Z,2.27
2018-06-22T15:04:38.361Z,1.70
2018-06-22T15:07:12.885Z,1.20
2018-06-22T15:09:42.168Z,1.50
2018-06-22T15:12:12.164Z,2.50
2018-06-22T15:14:41.444Z,4.60
2018-06-22T15:17:12.053Z,1.40
2018-06-22T15:19:44.041Z,1.30
2018-06-22T15:22:14.613Z,1.97
2018-06-22T15:24:46.442Z,5.27
2018-06-22T15:27:15.791Z,3.00
2018-06-22T15:29:45.373Z,4.70
2018-06-22T15:32:15.356Z,3.50
2018-06-22T15:34:49.888Z,1.50
2018-06-22T15:37:24.517Z,1.37
2018-06-22T15:39:58.862Z,1.47
2018-06-22T15:42:33.275Z,1.30
2018-06-22T15:45:07.627Z,1.60
2018-06-22T15:47:42.116Z,1.30
2018-06-22T15:50:16.988Z,1.37
2018-06-22T15:52:51.854Z,1.30
2018-06-22T15:55:23.236Z,1.50
2018-06-22T15:57:52.225Z,1.67
2018-06-22T16:00:21.387Z,1.53
2018-06-22T16:02:56.034Z,1.60
2018-06-22T16:05:25.427Z,1.60
2018-06-22T16:07:54.519Z,1.90
2018-06-22T16:10:24.028Z,1.90
2018-06-22T16:12:53.615Z,3.07
2018-06-22T16:15:28.058Z,3.27
2018-06-22T16:18:02.592Z,5.97
2018-06-22T16:20:36.818Z,4.47
2018-06-22T16:23:11.132Z,3.33
2018-06-22T16:25:45.123Z,3.70
2018-06-22T16:28:14.323Z,4.90
2018-06-22T16:30:43.725Z,3.53
2018-06-22T16:33:12.952Z,3.97
2018-06-22T16:35:42.435Z,3.30
2018-06-22T16:38:12.166Z,4.10
2018-06-22T16:40:41.362Z,3.37
2018-06-22T16:43:10.874Z,3.03
2018-06-22T16:45:40.059Z,3.67
2018-06-22T16:48:09.998Z,4.23
2018-06-22T16:50:39.513Z,3.30
2018-06-22T16:53:08.743Z,3.20
2018-06-22T16:55:38.060Z,4.30
2018-06-22T16:58:12.113Z,4.10
2018-06-22T17:00:41.539Z,2.10
2018-06-22T17:03:11.328Z,2.50
2018-06-22T17:05:40.782Z,1.70
2018-06-22T17:08:15.341Z,3.30
2018-06-22T17:10:49.786Z,2.87
2018-06-22T17:13:24.855Z,2.60
2018-06-22T17:15:59.094Z,3.20
2018-06-22T17:18:33.878Z,2.80
2018-06-22T17:21:02.991Z,2.60
2018-06-22T17:23:32.384Z,2.80
2018-06-22T17:26:01.682Z,2.53
2018-06-22T17:28:31.077Z,2.53
2018-06-22T17:31:00.314Z,4.63
2018-06-22T17:33:29.869Z,5.33
2018-06-22T17:35:59.383Z,8.43
2018-06-22T17:38:28.833Z,6.03
2018-06-22T17:40:58.055Z,7.20
2018-06-22T17:43:27.540Z,5.70
2018-06-22T17:45:57.186Z,2.70
2018-06-22T17:48:27.258Z,3.93
2018-06-22T17:50:57.024Z,2.40
2018-06-22T17:53:26.221Z,3.00
2018-06-22T17:55:55.580Z,2.77
2018-06-22T17:58:25.183Z,2.90
2018-06-22T18:00:59.659Z,2.60
2018-06-22T18:03:34.423Z,2.90
2018-06-22T18:06:09.119Z,3.60
2018-06-22T18:08:46.529Z,2.97
2018-06-22T18:11:21.490Z,2.87
2018-06-22T18:13:50.802Z,3.53
2018-06-22T18:16:19.948Z,3.47
2018-06-22T18:18:49.494Z,4.33
2018-06-22T18:21:19.333Z,4.50
2018-06-22T18:23:48.419Z,3.70
2018-06-22T18:26:18.134Z,2.70
2018-06-22T18:28:47.782Z,2.30
2018-06-22T18:31:17.771Z,2.23
2018-06-22T18:33:47.483Z,2.80
2018-06-22T18:36:16.861Z,2.60
2018-06-22T18:38:46.235Z,3.17
2018-06-22T18:41:15.997Z,2.93
2018-06-22T18:43:50.295Z,2.73
2018-06-22T18:46:19.539Z,2.30
2018-06-22T18:48:48.963Z,2.27
2018-06-22T18:51:25.542Z,2.23
2018-06-22T18:54:00.333Z,2.60
2018-06-22T18:56:34.968Z,3.27
2018-06-22T18:59:09.619Z,4.73
2018-06-22T19:01:44.893Z,5.67
2018-06-22T19:04:14.704Z,3.13
2018-06-22T19:06:44.308Z,2.90
2018-06-22T19:09:14.576Z,2.93
2018-06-22T19:11:43.954Z,3.10
2018-06-22T19:14:12.943Z,3.23
2018-06-22T19:16:42.361Z,3.53
2018-06-22T19:19:11.890Z,6.17
2018-06-22T19:21:41.241Z,6.97
2018-06-22T19:24:10.382Z,7.60
2018-06-22T19:26:40.040Z,8.37
2018-06-22T19:29:10.705Z,9.30
2018-06-22T19:31:39.901Z,9.47
2018-06-22T19:34:09.604Z,9.60
2018-06-22T19:36:39.340Z,9.50
2018-06-22T19:39:10.176Z,10.73
2018-06-22T19:41:39.935Z,9.90
2018-06-22T19:44:14.346Z,9.70
2018-06-22T19:46:49.109Z,10.00
2018-06-22T19:49:23.530Z,8.00
2018-06-22T19:51:58.196Z,7.60
2018-06-22T19:54:27.781Z,6.03
2018-06-22T19:56:57.307Z,6.03
2018-06-22T19:59:27.024Z,7.40
2018-06-22T20:01:56.388Z,8.10
2018-06-22T20:04:25.692Z,7.30
2018-06-22T20:06:55.174Z,7.17
2018-06-22T20:09:24.356Z,7.03
2018-06-22T20:11:53.764Z,6.63
2018-06-22T20:14:24.860Z,7.47
2018-06-22T20:16:54.315Z,7.07
2018-06-22T20:19:23.511Z,6.47
2018-06-22T20:21:53.187Z,7.03
2018-06-22T20:24:27.528Z,6.53
2018-06-22T20:26:56.802Z,5.90
2018-06-22T20:29:26.751Z,5.83
2018-06-22T20:31:56.260Z,6.03
2018-06-22T20:34:30.763Z,5.97
2018-06-22T20:37:05.242Z,6.17
2018-06-22T20:39:39.627Z,5.27
2018-06-22T20:42:14.094Z,4.63
2018-06-22T20:44:48.793Z,4.50
2018-06-22T20:47:23.367Z,4.83
2018-06-22T20:49:57.613Z,4.70
2018-06-22T20:52:27.596Z,4.53
2018-06-22T20:54:56.975Z,5.60
2018-06-22T20:57:26.191Z,4.57
2018-06-22T20:59:55.656Z,4.90
2018-06-22T21:02:25.055Z,4.97
2018-06-22T21:04:54.775Z,5.87
2018-06-22T21:07:24.588Z,5.57
2018-06-22T21:09:53.988Z,5.70
2018-06-22T21:12:26.251Z,5.27
2018-06-22T21:14:53.190Z,5.60
2018-06-22T21:17:22.650Z,5.57
2018-06-22T21:19:52.181Z,5.90
2018-06-22T21:22:21.653Z,6.43
2018-06-22T21:24:51.490Z,6.17
2018-06-22T21:27:26.006Z,5.60
2018-06-22T21:30:00.900Z,6.00
2018-06-22T21:32:35.692Z,6.10
2018-06-22T21:35:10.259Z,5.77
2018-06-22T21:37:44.889Z,4.90
2018-06-22T21:40:14.158Z,5.40
2018-06-22T21:42:43.686Z,5.67
2018-06-22T21:45:13.107Z,6.33
2018-06-22T21:47:42.537Z,6.73
2018-06-22T21:50:12.213Z,7.50
2018-06-22T21:52:41.755Z,6.40
2018-06-22T21:55:11.485Z,7.40
2018-06-22T21:57:41.162Z,7.47
2018-06-22T22:00:11.485Z,6.97
2018-06-22T22:02:40.996Z,7.00
2018-06-22T22:05:10.175Z,7.37
2018-06-22T22:07:39.566Z,7.37
2018-06-22T22:10:08.868Z,6.67
2018-06-22T22:12:38.182Z,5.83
2018-06-22T22:15:07.540Z,6.20
2018-06-22T22:17:36.659Z,7.37
2018-06-22T22:20:05.856Z,7.57
2018-06-22T22:22:35.008Z,7.87
2018-06-22T22:25:04.285Z,8.10
2018-06-22T22:27:33.536Z,7.93
2018-06-22T22:30:03.040Z,8.60
2018-06-22T22:32:32.403Z,8.90
2018-06-22T22:35:01.879Z,6.17
2018-06-22T22:37:31.133Z,5.13
2018-06-22T22:40:00.346Z,4.50
2018-06-22T22:42:29.543Z,4.50
2018-06-22T22:44:58.855Z,4.43
2018-06-22T22:47:28.844Z,4.67
2018-06-22T22:49:58.667Z,4.73
2018-06-22T22:52:27.858Z,4.40
2018-06-22T22:54:57.822Z,4.57
2018-06-22T22:57:27.317Z,4.30
2018-06-22T22:59:56.831Z,3.83
2018-06-22T23:02:26.496Z,4.03
2018-06-22T23:04:56.069Z,3.83
2018-06-22T23:07:25.887Z,3.70
2018-06-22T23:09:55.678Z,3.70
2018-06-22T23:12:25.308Z,3.90
2018-06-22T23:14:54.798Z,3.93
2018-06-22T23:17:24.454Z,3.73
2018-06-22T23:19:53.665Z,3.27
2018-06-22T23:22:33.726Z,3.03
2018-06-22T23:25:03.354Z,3.50
2018-06-22T23:27:32.706Z,3.60
2018-06-22T23:30:02.257Z,3.77
2018-06-22T23:32:31.754Z,3.13
2018-06-22T23:35:01.069Z,3.03
2018-06-22T23:37:30.247Z,3.00
2018-06-22T23:39:59.876Z,2.77
2018-06-22T23:42:29.138Z,3.00
2018-06-22T23:44:58.675Z,2.87
2018-06-22T23:47:27.979Z,3.10
2018-06-22T23:49:57.272Z,2.87
2018-06-22T23:52:26.485Z,3.63
2018-06-22T23:54:55.907Z,3.90
2018-06-22T23:57:25.337Z,5.40
2018-06-22T23:59:54.915Z,8.03
